Time,TemperatureF,DewpointF,PressureIn,WindDirection,WindDirectionDegrees,WindSpeedMPH,WindSpeedGustMPH,Humidity,HourlyPrecipIn,Conditions,Clouds,dailyrainin,SoftwareType,DateUTC
2014-04-19 00:01:00,46.3,34.9,29.28,NNW,343,3.9,4.5,64,0.00,,,0.01,proprietary,2014-04-19 04:01:00,
2014-04-19 00:02:00,46.3,34.9,29.28,NNW,347,5.3,7.3,64,0.00,,,0.01,proprietary,2014-04-19 04:02:00,
2014-04-19 00:04:00,46.2,35.0,29.28,North,4,4.7,5.3,64,0.00,,,0.01,proprietary,2014-04-19 04:04:00,
2014-04-19 00:05:00,46.1,35.0,29.28,North,357,4.3,4.9,64,0.00,,,0.00,proprietary,2014-04-19 04:05:00,
2014-04-19 00:10:00,45.9,35.2,29.29,North,350,4.3,4.8,65,0.00,,,0.00,proprietary,2014-04-19 04:10:00,
2014-04-19 00:15:00,45.4,35.4,29.29,North,6,3.4,3.9,67,0.00,,,0.00,proprietary,2014-04-19 04:15:00,
2014-04-19 00:20:00,45.4,36.1,29.29,North,10,2.8,3.3,69,0.00,,,0.00,proprietary,2014-04-19 04:20:00,
2014-04-19 00:25:00,45.4,36.8,29.30,NNE,20,5.1,6.7,71,0.00,,,0.00,proprietary,2014-04-19 04:25:00,
2014-04-19 00:30:00,45.5,37.0,29.30,NE,37,4.1,4.8,72,0.00,,,0.00,proprietary,2014-04-19 04:30:00,
2014-04-19 00:35:00,45.4,37.0,29.30,ENE,59,2.5,2.7,72,0.00,,,0.00,proprietary,2014-04-19 04:35:00,
2014-04-19 00:40:00,44.9,36.9,29.31,NNE,18,1.8,3.5,73,0.00,,,0.00,proprietary,2014-04-19 04:40:00,
2014-04-19 00:45:00,45.0,36.5,29.31,NE,45,5.0,6.8,71,0.00,,,0.00,proprietary,2014-04-19 04:45:00,
2014-04-19 00:50:00,44.6,36.2,29.31,ENE,58,2.8,3.5,72,0.00,,,0.00,proprietary,2014-04-19 04:50:00,
2014-04-19 00:56:00,44.4,36.0,29.31,ENE,60,1.7,2.1,72,0.00,,,0.00,proprietary,2014-04-19 04:56:00,
2014-04-19 01:01:00,44.0,35.7,29.31,NE,48,3.7,6.7,72,0.00,,,0.00,proprietary,2014-04-19 05:01:00,
2014-04-19 01:06:00,43.8,35.6,29.31,NNE,23,5.6,8.0,72,0.00,,,0.00,proprietary,2014-04-19 05:06:00,
2014-04-19 01:11:00,43.5,34.8,29.32,NE,52,2.7,4.0,71,0.00,,,0.00,proprietary,2014-04-19 05:11:00,
2014-04-19 01:16:00,43.3,34.6,29.32,NE,40,3.3,4.8,71,0.00,,,0.00,proprietary,2014-04-19 05:16:00,
2014-04-19 01:21:00,43.1,34.6,29.32,NE,44,2.5,2.9,71,0.00,,,0.00,proprietary,2014-04-19 05:21:00,
2014-04-19 01:26:00,42.8,33.8,29.32,NE,47,3.5,4.5,70,0.00,,,0.00,proprietary,2014-04-19 05:26:00,
2014-04-19 01:31:00,42.7,34.0,29.32,NE,45,2.5,2.9,71,0.00,,,0.00,proprietary,2014-04-19 05:31:00,
2014-04-19 01:36:00,42.6,34.1,29.32,NNE,18,2.9,4.1,71,0.00,,,0.00,proprietary,2014-04-19 05:36:00,
2014-04-19 01:38:00,42.5,34.2,29.32,NNE,20,4.8,7.1,72,0.00,,,0.00,proprietary,2014-04-19 05:38:00,
2014-04-19 01:43:00,42.2,33.7,29.32,NNE,30,4.1,5.9,71,0.00,,,0.00,proprietary,2014-04-19 05:43:00,
2014-04-19 01:48:00,41.6,32.8,29.32,NNE,12,6.6,8.4,70,0.00,,,0.00,proprietary,2014-04-19 05:48:00,
2014-04-19 01:53:00,41.2,32.6,29.32,NNE,19,7.2,9.5,71,0.00,,,0.00,proprietary,2014-04-19 05:53:00,
2014-04-19 01:58:00,40.9,32.4,29.32,North,11,5.7,8.4,71,0.00,,,0.00,proprietary,2014-04-19 05:58:00,
2014-04-19 02:03:00,40.6,32.2,29.32,NNE,19,4.1,5.2,71,0.00,,,0.00,proprietary,2014-04-19 06:03:00,
2014-04-19 02:08:00,40.2,32.0,29.32,NE,38,4.3,6.7,72,0.00,,,0.00,proprietary,2014-04-19 06:08:00,
2014-04-19 02:14:00,39.8,31.8,29.33,NE,41,4.8,6.4,72,0.00,,,0.00,proprietary,2014-04-19 06:14:00,
2014-04-19 02:19:00,39.7,31.9,29.33,NNE,26,3.6,4.4,73,0.00,,,0.00,proprietary,2014-04-19 06:19:00,
2014-04-19 02:24:00,39.6,31.7,29.33,NNE,28,4.9,6.4,73,0.00,,,0.00,proprietary,2014-04-19 06:24:00,
2014-04-19 02:31:00,39.1,31.3,29.33,NE,37,5.2,6.2,73,0.00,,,0.00,proprietary,2014-04-19 06:31:00,
2014-04-19 02:37:00,38.6,31.0,29.34,NE,39,4.9,5.4,73,0.00,,,0.00,proprietary,2014-04-19 06:37:00,
2014-04-19 02:38:00,38.5,31.0,29.34,NE,40,5.1,7.4,74,0.00,,,0.00,proprietary,2014-04-19 06:38:00,
2014-04-19 02:43:00,38.2,30.8,29.34,NE,37,3.6,5.0,74,0.00,,,0.00,proprietary,2014-04-19 06:43:00,
2014-04-19 02:48:00,38.2,31.0,29.34,NE,40,5.0,6.2,75,0.00,,,0.00,proprietary,2014-04-19 06:48:00,
2014-04-19 02:53:00,37.9,30.6,29.34,NNE,14,3.2,3.6,74,0.00,,,0.00,proprietary,2014-04-19 06:53:00,
2014-04-19 02:58:00,37.7,30.5,29.34,NNE,30,3.3,6.3,74,0.00,,,0.00,proprietary,2014-04-19 06:58:00,
2014-04-19 03:03:00,37.6,30.5,29.34,NNE,13,4.2,6.3,75,0.00,,,0.00,proprietary,2014-04-19 07:03:00,
2014-04-19 03:08:00,37.3,30.1,29.34,NNE,27,3.9,5.2,74,0.00,,,0.00,proprietary,2014-04-19 07:08:00,
2014-04-19 03:14:00,37.1,30.0,29.34,NNE,26,3.9,5.6,75,0.00,,,0.00,proprietary,2014-04-19 07:14:00,
2014-04-19 03:19:00,36.8,29.8,29.34,NNE,31,2.7,4.9,75,0.00,,,0.00,proprietary,2014-04-19 07:19:00,
2014-04-19 03:24:00,36.6,29.5,29.34,NNE,17,3.1,4.1,75,0.00,,,0.00,proprietary,2014-04-19 07:24:00,
2014-04-19 03:29:00,36.4,29.2,29.34,NE,34,4.7,7.3,74,0.00,,,0.00,proprietary,2014-04-19 07:29:00,
2014-04-19 03:34:00,36.1,29.0,29.34,NE,41,4.2,5.5,75,0.00,,,0.00,proprietary,2014-04-19 07:34:00,
2014-04-19 03:39:00,35.9,29.0,29.34,NE,35,3.9,5.5,75,0.00,,,0.00,proprietary,2014-04-19 07:39:00,
2014-04-19 03:44:00,35.7,29.1,29.34,NE,41,4.6,7.9,76,0.00,,,0.00,proprietary,2014-04-19 07:44:00,
2014-04-19 03:49:00,35.5,29.0,29.34,NNE,12,5.8,7.3,76,0.00,,,0.00,proprietary,2014-04-19 07:49:00,
2014-04-19 03:54:00,35.4,28.7,29.34,NNE,19,5.3,8.3,76,0.00,,,0.00,proprietary,2014-04-19 07:54:00,
2014-04-19 03:59:00,35.1,28.5,29.34,NNE,31,4.9,7.4,76,0.00,,,0.00,proprietary,2014-04-19 07:59:00,
2014-04-19 04:04:00,34.9,28.5,29.34,NNE,22,4.7,6.0,77,0.00,,,0.00,proprietary,2014-04-19 08:04:00,
2014-04-19 04:09:00,34.6,28.4,29.34,NNE,19,4.7,5.5,77,0.00,,,0.00,proprietary,2014-04-19 08:09:00,
2014-04-19 04:14:00,34.5,28.2,29.34,NNE,19,4.9,5.8,77,0.00,,,0.00,proprietary,2014-04-19 08:14:00,
2014-04-19 04:19:00,34.3,28.0,29.34,NNE,18,3.9,4.8,77,0.00,,,0.00,proprietary,2014-04-19 08:19:00,
2014-04-19 04:24:00,34.1,28.0,29.34,NNE,19,5.3,7.9,77,0.00,,,0.00,proprietary,2014-04-19 08:24:00,
2014-04-19 04:29:00,34.0,28.0,29.35,NNE,17,3.4,4.3,78,0.00,,,0.00,proprietary,2014-04-19 08:29:00,
2014-04-19 04:34:00,33.9,27.9,29.34,NE,34,4.9,6.3,78,0.00,,,0.00,proprietary,2014-04-19 08:34:00,
2014-04-19 04:39:00,33.7,27.9,29.35,NNE,18,4.1,5.3,78,0.00,,,0.00,proprietary,2014-04-19 08:39:00,
2014-04-19 04:44:00,33.5,27.8,29.35,NE,44,2.7,3.2,79,0.00,,,0.00,proprietary,2014-04-19 08:44:00,
2014-04-19 04:49:00,33.5,27.7,29.35,North,5,3.7,4.3,79,0.00,,,0.00,proprietary,2014-04-19 08:49:00,
2014-04-19 04:54:00,33.4,27.6,29.35,NNE,17,3.0,4.0,78,0.00,,,0.00,proprietary,2014-04-19 08:54:00,
2014-04-19 04:59:00,33.4,27.5,29.35,NNE,19,5.5,6.9,78,0.00,,,0.00,proprietary,2014-04-19 08:59:00,
2014-04-19 05:04:00,33.2,27.4,29.35,North,5,4.0,5.1,78,0.00,,,0.00,proprietary,2014-04-19 09:04:00,
2014-04-19 05:09:00,33.1,27.4,29.35,NNE,24,3.1,3.9,79,0.00,,,0.00,proprietary,2014-04-19 09:09:00,
2014-04-19 05:14:00,32.8,27.4,29.35,NE,37,2.6,3.5,80,0.00,,,0.00,proprietary,2014-04-19 09:14:00,
2014-04-19 05:19:00,32.6,27.3,29.35,NNE,16,3.1,3.9,80,0.00,,,0.00,proprietary,2014-04-19 09:19:00,
2014-04-19 05:24:00,32.6,27.5,29.35,NNE,26,2.2,2.9,81,0.00,,,0.00,proprietary,2014-04-19 09:24:00,
2014-04-19 05:29:00,32.6,27.4,29.35,NNE,19,4.0,4.6,80,0.00,,,0.00,proprietary,2014-04-19 09:29:00,
2014-04-19 05:34:00,32.6,27.3,29.36,NE,54,2.2,3.0,80,0.00,,,0.00,proprietary,2014-04-19 09:34:00,
2014-04-19 05:39:00,32.7,27.1,29.36,NNE,23,2.6,3.2,79,0.00,,,0.00,proprietary,2014-04-19 09:39:00,
2014-04-19 05:44:00,32.5,27.0,29.36,NNE,21,1.0,2.1,79,0.00,,,0.00,proprietary,2014-04-19 09:44:00,
2014-04-19 05:49:00,32.5,27.0,29.36,NNE,29,5.2,6.5,79,0.00,,,0.00,proprietary,2014-04-19 09:49:00,
2014-04-19 05:54:00,32.4,26.9,29.36,NNE,12,3.5,4.5,79,0.00,,,0.00,proprietary,2014-04-19 09:54:00,
2014-04-19 05:59:00,32.2,26.9,29.36,NE,47,3.9,5.2,80,0.00,,,0.00,proprietary,2014-04-19 09:59:00,
2014-04-19 06:04:00,32.0,26.9,29.36,NNE,16,4.0,4.7,81,0.00,,,0.00,proprietary,2014-04-19 10:04:00,
2014-04-19 06:09:00,31.9,26.9,29.37,NNE,22,1.8,3.3,81,0.00,,,0.00,proprietary,2014-04-19 10:09:00,
2014-04-19 06:14:00,31.7,26.8,29.37,NE,38,2.5,3.8,81,0.00,,,0.00,proprietary,2014-04-19 10:14:00,
2014-04-19 06:19:00,31.7,26.8,29.36,NNE,30,2.8,4.0,81,0.00,,,0.00,proprietary,2014-04-19 10:19:00,
2014-04-19 06:24:00,31.8,26.9,29.37,NNE,15,1.5,2.8,81,0.00,,,0.00,proprietary,2014-04-19 10:24:00,
2014-04-19 06:29:00,31.6,26.7,29.37,NNE,21,1.9,2.2,81,0.00,,,0.00,proprietary,2014-04-19 10:29:00,
2014-04-19 06:34:00,31.1,26.5,29.37,NE,38,1.4,2.2,82,0.00,,,0.00,proprietary,2014-04-19 10:34:00,
2014-04-19 06:39:00,30.9,26.5,29.37,North,0,0.0,0.0,83,0.00,,,0.00,proprietary,2014-04-19 10:39:00,
2014-04-19 06:44:00,30.5,26.4,29.38,North,0,0.0,0.0,84,0.00,,,0.00,proprietary,2014-04-19 10:44:00,
2014-04-19 06:49:00,30.5,26.5,29.38,North,0,0.0,0.0,84,0.00,,,0.00,proprietary,2014-04-19 10:49:00,
2014-04-19 06:54:00,30.3,26.4,29.38,NNE,27,1.7,2.2,85,0.00,,,0.00,proprietary,2014-04-19 10:54:00,
2014-04-19 06:59:00,30.2,26.5,29.38,NNE,20,1.1,1.9,86,0.00,,,0.00,proprietary,2014-04-19 10:59:00,
2014-04-19 07:04:00,29.9,26.4,29.39,NNE,20,1.7,1.9,86,0.00,,,0.00,proprietary,2014-04-19 11:04:00,
2014-04-19 07:09:00,30.4,26.8,29.39,NNE,13,1.3,1.8,86,0.00,,,0.00,proprietary,2014-04-19 11:09:00,
2014-04-19 07:14:00,30.4,26.7,29.39,NNE,19,2.5,3.4,85,0.00,,,0.00,proprietary,2014-04-19 11:14:00,
2014-04-19 07:19:00,30.5,26.7,29.39,NNE,29,1.7,2.1,85,0.00,,,0.00,proprietary,2014-04-19 11:19:00,
2014-04-19 07:24:00,30.8,26.9,29.39,NNE,19,2.2,3.2,85,0.00,,,0.00,proprietary,2014-04-19 11:24:00,
2014-04-19 07:29:00,30.9,27.0,29.39,NNE,12,2.3,3.0,85,0.00,,,0.00,proprietary,2014-04-19 11:29:00,
2014-04-19 07:34:00,31.2,27.1,29.39,NNE,20,3.2,3.9,84,0.00,,,0.00,proprietary,2014-04-19 11:34:00,
2014-04-19 07:39:00,31.6,27.2,29.39,NNE,16,3.8,4.7,83,0.00,,,0.00,proprietary,2014-04-19 11:39:00,
2014-04-19 07:44:00,32.1,27.2,29.39,North,5,3.1,3.7,81,0.00,,,0.00,proprietary,2014-04-19 11:44:00,
2014-04-19 07:49:00,32.4,27.4,29.39,North,11,1.9,3.0,81,0.00,,,0.00,proprietary,2014-04-19 11:49:00,
2014-04-19 07:54:00,32.7,27.5,29.39,NNE,13,3.3,4.6,80,0.00,,,0.00,proprietary,2014-04-19 11:54:00,
2014-04-19 07:59:00,33.0,27.5,29.39,North,6,4.1,4.6,79,0.00,,,0.00,proprietary,2014-04-19 11:59:00,
2014-04-19 08:04:00,33.3,27.6,29.40,NNE,25,4.3,6.9,79,0.00,,,0.00,proprietary,2014-04-19 12:04:00,
2014-04-19 08:09:00,33.8,27.7,29.40,NNE,12,6.6,8.4,78,0.00,,,0.00,proprietary,2014-04-19 12:09:00,
2014-04-19 08:14:00,34.3,27.6,29.40,NNE,18,5.5,6.3,76,0.00,,,0.00,proprietary,2014-04-19 12:14:00,
2014-04-19 08:19:00,34.7,27.7,29.40,NNE,15,4.3,5.2,75,0.00,,,0.00,proprietary,2014-04-19 12:19:00,
2014-04-19 08:24:00,35.0,27.6,29.40,NE,45,3.1,4.0,74,0.00,,,0.00,proprietary,2014-04-19 12:24:00,
2014-04-19 08:29:00,35.2,27.6,29.40,NNE,27,4.5,5.5,73,0.00,,,0.00,proprietary,2014-04-19 12:29:00,
2014-04-19 08:34:00,35.8,28.3,29.41,NNE,22,3.1,4.8,73,0.00,,,0.00,proprietary,2014-04-19 12:34:00,
2014-04-19 08:39:00,36.0,28.0,29.41,ENE,62,3.4,5.9,72,0.00,,,0.00,proprietary,2014-04-19 12:39:00,
2014-04-19 08:44:00,36.3,28.2,29.41,NE,34,4.0,7.1,72,0.00,,,0.00,proprietary,2014-04-19 12:44:00,
2014-04-19 08:49:00,36.8,28.0,29.41,NE,53,3.4,4.7,70,0.00,,,0.00,proprietary,2014-04-19 12:49:00,
2014-04-19 08:54:00,36.7,27.7,29.41,ENE,57,3.1,4.9,69,0.00,,,0.00,proprietary,2014-04-19 12:54:00,
2014-04-19 08:59:00,37.0,27.8,29.41,NNE,30,3.5,4.0,69,0.00,,,0.00,proprietary,2014-04-19 12:59:00,
2014-04-19 09:04:00,37.4,28.1,29.41,NE,36,3.8,5.1,68,0.00,,,0.00,proprietary,2014-04-19 13:04:00,
2014-04-19 09:09:00,37.9,28.1,29.41,NNE,19,3.5,4.3,67,0.00,,,0.00,proprietary,2014-04-19 13:09:00,
2014-04-19 09:14:00,38.3,28.4,29.41,NE,51,4.4,5.4,67,0.00,,,0.00,proprietary,2014-04-19 13:14:00,
2014-04-19 09:19:00,38.0,28.2,29.41,NNE,28,3.0,4.5,67,0.00,,,0.00,proprietary,2014-04-19 13:19:00,
2014-04-19 09:24:00,38.5,28.0,29.41,NNE,25,3.7,4.3,65,0.00,,,0.00,proprietary,2014-04-19 13:24:00,
2014-04-19 09:29:00,38.3,28.5,29.41,NNE,21,4.9,6.1,67,0.00,,,0.00,proprietary,2014-04-19 13:29:00,
2014-04-19 09:34:00,39.4,28.4,29.41,NE,52,5.1,7.2,64,0.00,,,0.00,proprietary,2014-04-19 13:34:00,
2014-04-19 09:39:00,39.7,29.3,29.41,NE,44,4.9,5.6,66,0.00,,,0.00,proprietary,2014-04-19 13:39:00,
2014-04-19 09:44:00,40.0,28.4,29.41,NE,44,3.4,6.7,63,0.00,,,0.00,proprietary,2014-04-19 13:44:00,
2014-04-19 09:49:00,40.7,28.5,29.41,ENE,71,4.9,6.0,61,0.00,,,0.00,proprietary,2014-04-19 13:49:00,
2014-04-19 09:54:00,40.8,27.9,29.41,NE,41,4.2,6.6,59,0.00,,,0.00,proprietary,2014-04-19 13:54:00,
2014-04-19 09:59:00,41.1,28.0,29.41,NE,56,1.5,2.5,59,0.00,,,0.00,proprietary,2014-04-19 13:59:00,
2014-04-19 10:04:00,41.1,28.0,29.41,NE,49,3.5,4.8,59,0.00,,,0.00,proprietary,2014-04-19 14:04:00,
2014-04-19 10:09:00,41.8,28.5,29.41,ENE,58,5.9,7.5,58,0.00,,,0.00,proprietary,2014-04-19 14:09:00,
2014-04-19 10:14:00,42.1,28.2,29.41,NE,53,6.2,7.3,57,0.00,,,0.00,proprietary,2014-04-19 14:14:00,
2014-04-19 10:19:00,42.5,28.8,29.41,East,85,3.5,5.7,57,0.00,,,0.00,proprietary,2014-04-19 14:19:00,
2014-04-19 10:24:00,43.0,28.4,29.41,East,80,1.3,3.5,56,0.00,,,0.00,proprietary,2014-04-19 14:24:00,
2014-04-19 10:29:00,43.3,28.4,29.41,NNE,33,3.7,5.3,55,0.00,,,0.00,proprietary,2014-04-19 14:29:00,
2014-04-19 10:34:00,43.9,28.1,29.41,East,94,4.9,9.8,53,0.00,,,0.00,proprietary,2014-04-19 14:34:00,
2014-04-19 10:39:00,44.6,27.9,29.41,East,94,3.5,4.8,51,0.00,,,0.00,proprietary,2014-04-19 14:39:00,
2014-04-19 10:44:00,44.8,27.9,29.41,NE,52,4.9,7.3,51,0.00,,,0.00,proprietary,2014-04-19 14:44:00,
2014-04-19 10:49:00,44.1,28.2,29.41,ENE,58,3.8,5.3,53,0.00,,,0.00,proprietary,2014-04-19 14:49:00,
2014-04-19 10:54:00,45.4,28.8,29.41,East,93,2.7,4.5,52,0.00,,,0.00,proprietary,2014-04-19 14:54:00,
2014-04-19 10:59:00,45.0,26.8,29.41,ESE,119,4.0,5.3,48,0.00,,,0.00,proprietary,2014-04-19 14:59:00,
2014-04-19 11:04:00,45.6,26.0,29.41,East,81,5.3,7.0,45,0.00,,,0.00,proprietary,2014-04-19 15:04:00,
2014-04-19 11:09:00,46.6,26.2,29.41,ESE,119,4.1,5.9,44,0.00,,,0.00,proprietary,2014-04-19 15:09:00,
2014-04-19 11:14:00,45.8,27.2,29.41,East,87,5.5,6.7,47,0.00,,,0.00,proprietary,2014-04-19 15:14:00,
2014-04-19 11:19:00,46.8,26.6,29.41,ENE,75,3.7,6.3,44,0.00,,,0.00,proprietary,2014-04-19 15:19:00,
2014-04-19 11:24:00,47.3,26.6,29.41,East,81,4.7,8.4,44,0.00,,,0.00,proprietary,2014-04-19 15:24:00,
2014-04-19 11:29:00,47.6,27.3,29.41,NNE,33,4.9,6.1,44,0.00,,,0.00,proprietary,2014-04-19 15:29:00,
2014-04-19 11:34:00,48.5,26.9,29.41,North,10,2.9,3.8,42,0.00,,,0.00,proprietary,2014-04-19 15:34:00,